sensor_id;sensor_type;location;lat;lon;timestamp;P1;durP1;ratioP1;P2;durP2;ratioP2
23743;SDS011;12052;53.478;10.182;2023-11-21T00:01:56;10.25;;;4.40;;
23743;SDS011;12052;53.478;10.182;2023-11-21T00:04:23;10.60;;;3.63;;
23743;SDS011;12052;53.478;10.182;2023-11-21T00:06:49;11.07;;;4.78;;
23743;SDS011;12052;53.478;10.182;2023-11-21T00:09:15;9.25;;;4.50;;
23743;SDS011;12052;53.478;10.182;2023-11-21T00:11:42;15.27;;;4.68;;
23743;SDS011;12052;53.478;10.182;2023-11-21T00:14:09;11.60;;;5.28;;
23743;SDS011;12052;53.478;10.182;2023-11-21T00:16:35;16.65;;;5.55;;
23743;SDS011;12052;53.478;10.182;2023-11-21T00:19:01;12.65;;;5.32;;
23743;SDS011;12052;53.478;10.182;2023-11-21T00:21:26;12.90;;;4.80;;
23743;SDS011;12052;53.478;10.182;2023-11-21T00:23:52;9.23;;;4.70;;
23743;SDS011;12052;53.478;10.182;2023-11-21T00:26:18;15.30;;;5.55;;
23743;SDS011;12052;53.478;10.182;2023-11-21T00:28:43;11.57;;;5.10;;
23743;SDS011;12052;53.478;10.182;2023-11-21T00:31:10;12.98;;;5.32;;
23743;SDS011;12052;53.478;10.182;2023-11-21T00:33:36;11.15;;;5.43;;
23743;SDS011;12052;53.478;10.182;2023-11-21T00:36:01;11.32;;;5.25;;
23743;SDS011;12052;53.478;10.182;2023-11-21T00:38:27;11.50;;;5.03;;
23743;SDS011;12052;53.478;10.182;2023-11-21T00:40:53;11.88;;;5.60;;
23743;SDS011;12052;53.478;10.182;2023-11-21T00:43:21;11.35;;;5.53;;
23743;SDS011;12052;53.478;10.182;2023-11-21T00:45:47;15.15;;;5.70;;
23743;SDS011;12052;53.478;10.182;2023-11-21T00:48:14;15.32;;;6.80;;
23743;SDS011;12052;53.478;10.182;2023-11-21T00:50:39;14.43;;;7.15;;
23743;SDS011;12052;53.478;10.182;2023-11-21T00:53:05;7.30;;;3.05;;
23743;SDS011;12052;53.478;10.182;2023-11-21T00:55:32;14.38;;;6.28;;
23743;SDS011;12052;53.478;10.182;2023-11-21T00:57:58;19.15;;;5.97;;
23743;SDS011;12052;53.478;10.182;2023-11-21T01:00:24;14.95;;;5.95;;
23743;SDS011;12052;53.478;10.182;2023-11-21T01:02:50;13.13;;;6.28;;
23743;SDS011;12052;53.478;10.182;2023-11-21T01:05:16;14.73;;;6.50;;
23743;SDS011;12052;53.478;10.182;2023-11-21T01:07:41;11.02;;;6.45;;
23743;SDS011;12052;53.478;10.182;2023-11-21T01:10:07;13.27;;;6.30;;
23743;SDS011;12052;53.478;10.182;2023-11-21T01:12:34;10.98;;;5.85;;
23743;SDS011;12052;53.478;10.182;2023-11-21T01:15:01;12.57;;;6.40;;
23743;SDS011;12052;53.478;10.182;2023-11-21T01:17:27;16.05;;;6.32;;
23743;SDS011;12052;53.478;10.182;2023-11-21T01:19:53;13.32;;;6.07;;
23743;SDS011;12052;53.478;10.182;2023-11-21T01:22:19;14.00;;;6.63;;
23743;SDS011;12052;53.478;10.182;2023-11-21T01:24:50;17.08;;;7.22;;
23743;SDS011;12052;53.478;10.182;2023-11-21T01:27:16;18.25;;;7.55;;
23743;SDS011;12052;53.478;10.182;2023-11-21T01:29:42;15.40;;;7.00;;
23743;SDS011;12052;53.478;10.182;2023-11-21T01:32:07;19.67;;;7.38;;
23743;SDS011;12052;53.478;10.182;2023-11-21T01:34:33;15.35;;;5.60;;
23743;SDS011;12052;53.478;10.182;2023-11-21T01:36:59;11.48;;;5.60;;
23743;SDS011;12052;53.478;10.182;2023-11-21T01:39:24;17.67;;;6.15;;
23743;SDS011;12052;53.478;10.182;2023-11-21T01:41:50;14.38;;;6.50;;
23743;SDS011;12052;53.478;10.182;2023-11-21T01:44:17;17.52;;;6.13;;
23743;SDS011;12052;53.478;10.182;2023-11-21T01:46:44;18.35;;;6.35;;
23743;SDS011;12052;53.478;10.182;2023-11-21T01:49:11;12.98;;;6.07;;
23743;SDS011;12052;53.478;10.182;2023-11-21T01:51:38;11.57;;;5.55;;
23743;SDS011;12052;53.478;10.182;2023-11-21T01:54:05;11.60;;;6.15;;
23743;SDS011;12052;53.478;10.182;2023-11-21T01:56:31;9.65;;;4.57;;
23743;SDS011;12052;53.478;10.182;2023-11-21T01:58:57;14.82;;;6.32;;
23743;SDS011;12052;53.478;10.182;2023-11-21T02:01:23;10.90;;;6.13;;
23743;SDS011;12052;53.478;10.182;2023-11-21T02:03:49;8.23;;;4.80;;
23743;SDS011;12052;53.478;10.182;2023-11-21T02:06:14;9.32;;;4.78;;
23743;SDS011;12052;53.478;10.182;2023-11-21T02:08:40;11.32;;;5.75;;
23743;SDS011;12052;53.478;10.182;2023-11-21T02:11:09;11.45;;;5.35;;
23743;SDS011;12052;53.478;10.182;2023-11-21T02:13:37;10.20;;;4.47;;
23743;SDS011;12052;53.478;10.182;2023-11-21T02:16:03;9.30;;;4.53;;
23743;SDS011;12052;53.478;10.182;2023-11-21T02:18:31;10.30;;;4.90;;
23743;SDS011;12052;53.478;10.182;2023-11-21T02:20:56;12.50;;;5.30;;
23743;SDS011;12052;53.478;10.182;2023-11-21T02:23:22;11.05;;;5.20;;
23743;SDS011;12052;53.478;10.182;2023-11-21T02:25:48;15.25;;;5.05;;
23743;SDS011;12052;53.478;10.182;2023-11-21T02:28:14;7.15;;;4.28;;
23743;SDS011;12052;53.478;10.182;2023-11-21T02:30:41;10.13;;;4.15;;
23743;SDS011;12052;53.478;10.182;2023-11-21T02:33:07;8.20;;;3.97;;
23743;SDS011;12052;53.478;10.182;2023-11-21T02:35:33;10.48;;;5.03;;
23743;SDS011;12052;53.478;10.182;2023-11-21T02:38:00;8.95;;;4.65;;
23743;SDS011;12052;53.478;10.182;2023-11-21T02:40:25;9.02;;;4.30;;
23743;SDS011;12052;53.478;10.182;2023-11-21T02:42:51;12.00;;;4.07;;
23743;SDS011;12052;53.478;10.182;2023-11-21T02:45:18;8.70;;;4.43;;
23743;SDS011;12052;53.478;10.182;2023-11-21T02:47:46;12.32;;;5.22;;
23743;SDS011;12052;53.478;10.182;2023-11-21T02:50:12;13.43;;;5.68;;
23743;SDS011;12052;53.478;10.182;2023-11-21T02:52:38;10.35;;;4.85;;
23743;SDS011;12052;53.478;10.182;2023-11-21T02:55:05;11.18;;;5.07;;
23743;SDS011;12052;53.478;10.182;2023-11-21T02:57:32;11.93;;;5.30;;
23743;SDS011;12052;53.478;10.182;2023-11-21T02:59:58;8.07;;;4.40;;
23743;SDS011;12052;53.478;10.182;2023-11-21T03:02:24;9.38;;;5.05;;
23743;SDS011;12052;53.478;10.182;2023-11-21T03:04:50;8.93;;;4.43;;
23743;SDS011;12052;53.478;10.182;2023-11-21T03:07:16;11.40;;;5.15;;
23743;SDS011;12052;53.478;10.182;2023-11-21T03:09:44;12.40;;;6.07;;
23743;SDS011;12052;53.478;10.182;2023-11-21T03:12:10;9.77;;;4.97;;
23743;SDS011;12052;53.478;10.182;2023-11-21T03:14:37;11.55;;;5.90;;
23743;SDS011;12052;53.478;10.182;2023-11-21T03:17:03;12.13;;;5.47;;
23743;SDS011;12052;53.478;10.182;2023-11-21T03:19:29;11.70;;;5.55;;
23743;SDS011;12052;53.478;10.182;2023-11-21T03:21:55;12.63;;;4.95;;
23743;SDS011;12052;53.478;10.182;2023-11-21T03:24:21;12.60;;;5.55;;
23743;SDS011;12052;53.478;10.182;2023-11-21T03:26:47;11.05;;;5.45;;
23743;SDS011;12052;53.478;10.182;2023-11-21T03:29:13;11.32;;;6.55;;
23743;SDS011;12052;53.478;10.182;2023-11-21T03:31:40;10.25;;;5.03;;
23743;SDS011;12052;53.478;10.182;2023-11-21T03:34:05;14.68;;;6.20;;
23743;SDS011;12052;53.478;10.182;2023-11-21T03:36:31;12.00;;;5.75;;
23743;SDS011;12052;53.478;10.182;2023-11-21T03:38:57;11.02;;;5.35;;
23743;SDS011;12052;53.478;10.182;2023-11-21T03:41:22;13.77;;;5.88;;
23743;SDS011;12052;53.478;10.182;2023-11-21T03:43:48;11.68;;;6.82;;
23743;SDS011;12052;53.478;10.182;2023-11-21T03:46:14;14.55;;;6.07;;
23743;SDS011;12052;53.478;10.182;2023-11-21T03:48:39;14.02;;;5.50;;
23743;SDS011;12052;53.478;10.182;2023-11-21T03:51:05;13.30;;;5.45;;
23743;SDS011;12052;53.478;10.182;2023-11-21T03:53:31;10.93;;;5.00;;
23743;SDS011;12052;53.478;10.182;2023-11-21T03:55:57;14.27;;;6.38;;
23743;SDS011;12052;53.478;10.182;2023-11-21T03:58:23;15.70;;;6.22;;
23743;SDS011;12052;53.478;10.182;2023-11-21T04:00:48;14.13;;;5.38;;
23743;SDS011;12052;53.478;10.182;2023-11-21T04:03:14;8.75;;;4.85;;
23743;SDS011;12052;53.478;10.182;2023-11-21T04:05:40;10.70;;;5.00;;
23743;SDS011;12052;53.478;10.182;2023-11-21T04:08:06;11.35;;;5.72;;
23743;SDS011;12052;53.478;10.182;2023-11-21T04:10:32;13.85;;;6.30;;
23743;SDS011;12052;53.478;10.182;2023-11-21T04:12:57;11.60;;;5.47;;
23743;SDS011;12052;53.478;10.182;2023-11-21T04:15:23;10.43;;;5.10;;
23743;SDS011;12052;53.478;10.182;2023-11-21T04:17:49;13.25;;;6.07;;
23743;SDS011;12052;53.478;10.182;2023-11-21T04:20:14;10.50;;;5.68;;
23743;SDS011;12052;53.478;10.182;2023-11-21T04:22:40;12.10;;;5.95;;
23743;SDS011;12052;53.478;10.182;2023-11-21T04:25:09;11.90;;;5.55;;
23743;SDS011;12052;53.478;10.182;2023-11-21T04:27:39;11.63;;;5.07;;
23743;SDS011;12052;53.478;10.182;2023-11-21T04:30:05;15.02;;;6.18;;
23743;SDS011;12052;53.478;10.182;2023-11-21T04:32:31;10.88;;;5.60;;
23743;SDS011;12052;53.478;10.182;2023-11-21T04:34:57;11.18;;;5.70;;
23743;SDS011;12052;53.478;10.182;2023-11-21T04:37:22;17.33;;;7.35;;
23743;SDS011;12052;53.478;10.182;2023-11-21T04:39:49;15.10;;;6.32;;
23743;SDS011;12052;53.478;10.182;2023-11-21T04:42:14;12.35;;;5.80;;
23743;SDS011;12052;53.478;10.182;2023-11-21T04:44:40;15.82;;;5.68;;
23743;SDS011;12052;53.478;10.182;2023-11-21T04:47:06;22.08;;;6.05;;
23743;SDS011;12052;53.478;10.182;2023-11-21T04:49:32;15.80;;;6.25;;
23743;SDS011;12052;53.478;10.182;2023-11-21T04:51:58;12.95;;;5.80;;
23743;SDS011;12052;53.478;10.182;2023-11-21T04:54:24;11.25;;;5.03;;
23743;SDS011;12052;53.478;10.182;2023-11-21T04:56:49;10.73;;;5.68;;
23743;SDS011;12052;53.478;10.182;2023-11-21T04:59:15;12.77;;;6.43;;
23743;SDS011;12052;53.478;10.182;2023-11-21T05:01:41;8.45;;;4.40;;
23743;SDS011;12052;53.478;10.182;2023-11-21T05:04:06;13.23;;;5.82;;
23743;SDS011;12052;53.478;10.182;2023-11-21T05:06:33;11.63;;;5.45;;
23743;SDS011;12052;53.478;10.182;2023-11-21T05:08:59;16.35;;;5.93;;
23743;SDS011;12052;53.478;10.182;2023-11-21T05:11:25;13.23;;;5.45;;
23743;SDS011;12052;53.478;10.182;2023-11-21T05:13:51;8.88;;;5.22;;
23743;SDS011;12052;53.478;10.182;2023-11-21T05:16:18;11.18;;;5.95;;
23743;SDS011;12052;53.478;10.182;2023-11-21T05:18:47;10.27;;;5.30;;
23743;SDS011;12052;53.478;10.182;2023-11-21T05:21:13;12.18;;;5.80;;
23743;SDS011;12052;53.478;10.182;2023-11-21T05:23:38;11.35;;;4.97;;
23743;SDS011;12052;53.478;10.182;2023-11-21T05:26:06;10.63;;;4.78;;
23743;SDS011;12052;53.478;10.182;2023-11-21T05:28:32;12.65;;;5.97;;
23743;SDS011;12052;53.478;10.182;2023-11-21T05:30:59;9.65;;;5.30;;
23743;SDS011;12052;53.478;10.182;2023-11-21T05:33:25;11.57;;;5.75;;
23743;SDS011;12052;53.478;10.182;2023-11-21T05:35:51;11.95;;;5.43;;
23743;SDS011;12052;53.478;10.182;2023-11-21T05:38:17;10.88;;;5.68;;
23743;SDS011;12052;53.478;10.182;2023-11-21T05:40:42;12.40;;;5.78;;
23743;SDS011;12052;53.478;10.182;2023-11-21T05:43:09;21.15;;;7.07;;
23743;SDS011;12052;53.478;10.182;2023-11-21T05:45:34;12.65;;;6.65;;
23743;SDS011;12052;53.478;10.182;2023-11-21T05:48:00;8.93;;;5.28;;
23743;SDS011;12052;53.478;10.182;2023-11-21T05:50:25;8.55;;;4.88;;
23743;SDS011;12052;53.478;10.182;2023-11-21T05:52:51;11.38;;;4.57;;
23743;SDS011;12052;53.478;10.182;2023-11-21T05:55:17;18.10;;;5.93;;
23743;SDS011;12052;53.478;10.182;2023-11-21T05:57:43;9.77;;;5.30;;
23743;SDS011;12052;53.478;10.182;2023-11-21T06:00:09;10.23;;;4.60;;
23743;SDS011;12052;53.478;10.182;2023-11-21T06:02:40;11.70;;;5.88;;
23743;SDS011;12052;53.478;10.182;2023-11-21T06:05:07;11.35;;;5.68;;
23743;SDS011;12052;53.478;10.182;2023-11-21T06:07:33;15.68;;;5.80;;
23743;SDS011;12052;53.478;10.182;2023-11-21T06:10:00;9.95;;;5.63;;
23743;SDS011;12052;53.478;10.182;2023-11-21T06:12:31;13.27;;;6.55;;
23743;SDS011;12052;53.478;10.182;2023-11-21T06:15:00;11.30;;;6.07;;
23743;SDS011;12052;53.478;10.182;2023-11-21T06:17:29;13.85;;;6.60;;
23743;SDS011;12052;53.478;10.182;2023-11-21T06:19:55;12.40;;;6.10;;
23743;SDS011;12052;53.478;10.182;2023-11-21T06:22:21;12.50;;;6.05;;
23743;SDS011;12052;53.478;10.182;2023-11-21T06:24:46;23.73;;;6.88;;
23743;SDS011;12052;53.478;10.182;2023-11-21T06:27:12;10.75;;;6.15;;
23743;SDS011;12052;53.478;10.182;2023-11-21T06:29:38;12.48;;;6.63;;
23743;SDS011;12052;53.478;10.182;2023-11-21T06:32:04;12.20;;;6.10;;
23743;SDS011;12052;53.478;10.182;2023-11-21T06:34:30;12.45;;;5.95;;
23743;SDS011;12052;53.478;10.182;2023-11-21T06:36:56;13.07;;;6.82;;
23743;SDS011;12052;53.478;10.182;2023-11-21T06:39:21;10.73;;;5.70;;
23743;SDS011;12052;53.478;10.182;2023-11-21T06:41:49;11.43;;;5.72;;
23743;SDS011;12052;53.478;10.182;2023-11-21T06:44:15;12.80;;;6.45;;
23743;SDS011;12052;53.478;10.182;2023-11-21T06:46:40;14.90;;;6.25;;
23743;SDS011;12052;53.478;10.182;2023-11-21T06:49:07;13.25;;;5.90;;
23743;SDS011;12052;53.478;10.182;2023-11-21T06:51:33;10.82;;;6.47;;
23743;SDS011;12052;53.478;10.182;2023-11-21T06:53:59;19.42;;;6.47;;
23743;SDS011;12052;53.478;10.182;2023-11-21T06:56:24;12.40;;;6.28;;
23743;SDS011;12052;53.478;10.182;2023-11-21T06:58:50;12.30;;;6.45;;
23743;SDS011;12052;53.478;10.182;2023-11-21T07:01:18;14.02;;;6.40;;
23743;SDS011;12052;53.478;10.182;2023-11-21T07:03:44;14.15;;;7.55;;
23743;SDS011;12052;53.478;10.182;2023-11-21T07:06:10;10.98;;;5.50;;
23743;SDS011;12052;53.478;10.182;2023-11-21T07:08:36;16.48;;;7.10;;
23743;SDS011;12052;53.478;10.182;2023-11-21T07:11:02;15.02;;;6.85;;
23743;SDS011;12052;53.478;10.182;2023-11-21T07:13:28;12.88;;;6.22;;
23743;SDS011;12052;53.478;10.182;2023-11-21T07:15:54;17.17;;;7.10;;
23743;SDS011;12052;53.478;10.182;2023-11-21T07:18:20;15.38;;;8.00;;
23743;SDS011;12052;53.478;10.182;2023-11-21T07:20:46;14.32;;;7.25;;
23743;SDS011;12052;53.478;10.182;2023-11-21T07:23:11;14.88;;;7.88;;
23743;SDS011;12052;53.478;10.182;2023-11-21T07:25:37;14.02;;;6.85;;
23743;SDS011;12052;53.478;10.182;2023-11-21T07:28:02;12.52;;;6.20;;
23743;SDS011;12052;53.478;10.182;2023-11-21T07:30:30;12.38;;;6.75;;
23743;SDS011;12052;53.478;10.182;2023-11-21T07:32:55;14.38;;;7.00;;
23743;SDS011;12052;53.478;10.182;2023-11-21T07:35:21;17.02;;;7.80;;
23743;SDS011;12052;53.478;10.182;2023-11-21T07:37:47;15.48;;;6.85;;
23743;SDS011;12052;53.478;10.182;2023-11-21T07:40:13;14.40;;;7.60;;
23743;SDS011;12052;53.478;10.182;2023-11-21T07:42:39;13.55;;;6.22;;
23743;SDS011;12052;53.478;10.182;2023-11-21T07:45:07;11.00;;;6.20;;
23743;SDS011;12052;53.478;10.182;2023-11-21T07:47:33;11.52;;;6.25;;
23743;SDS011;12052;53.478;10.182;2023-11-21T07:49:59;14.05;;;7.25;;
23743;SDS011;12052;53.478;10.182;2023-11-21T07:52:27;12.75;;;7.38;;
23743;SDS011;12052;53.478;10.182;2023-11-21T07:54:52;15.50;;;7.35;;
23743;SDS011;12052;53.478;10.182;2023-11-21T07:57:18;14.02;;;7.03;;
23743;SDS011;12052;53.478;10.182;2023-11-21T07:59:43;14.68;;;7.35;;
23743;SDS011;12052;53.478;10.182;2023-11-21T08:02:09;11.98;;;6.68;;
23743;SDS011;12052;53.478;10.182;2023-11-21T08:04:35;16.25;;;7.65;;
23743;SDS011;12052;53.478;10.182;2023-11-21T08:07:01;15.52;;;7.82;;
23743;SDS011;12052;53.478;10.182;2023-11-21T08:09:26;13.55;;;7.35;;
23743;SDS011;12052;53.478;10.182;2023-11-21T08:11:52;17.55;;;8.50;;
23743;SDS011;12052;53.478;10.182;2023-11-21T08:14:18;17.10;;;8.27;;
23743;SDS011;12052;53.478;10.182;2023-11-21T08:16:45;15.98;;;7.82;;
23743;SDS011;12052;53.478;10.182;2023-11-21T08:19:10;18.00;;;7.95;;
23743;SDS011;12052;53.478;10.182;2023-11-21T08:21:36;15.98;;;7.10;;
23743;SDS011;12052;53.478;10.182;2023-11-21T08:24:05;13.60;;;6.03;;
23743;SDS011;12052;53.478;10.182;2023-11-21T08:26:35;13.55;;;6.53;;
23743;SDS011;12052;53.478;10.182;2023-11-21T08:29:01;16.65;;;7.43;;
23743;SDS011;12052;53.478;10.182;2023-11-21T08:31:27;12.85;;;6.65;;
23743;SDS011;12052;53.478;10.182;2023-11-21T08:33:53;11.40;;;5.75;;
23743;SDS011;12052;53.478;10.182;2023-11-21T08:36:20;13.93;;;6.43;;
23743;SDS011;12052;53.478;10.182;2023-11-21T08:38:48;13.18;;;6.05;;
23743;SDS011;12052;53.478;10.182;2023-11-21T08:41:14;12.48;;;6.25;;
23743;SDS011;12052;53.478;10.182;2023-11-21T08:43:40;11.07;;;5.30;;
23743;SDS011;12052;53.478;10.182;2023-11-21T08:46:06;11.88;;;5.57;;
23743;SDS011;12052;53.478;10.182;2023-11-21T08:48:33;10.77;;;5.72;;
23743;SDS011;12052;53.478;10.182;2023-11-21T08:51:01;10.43;;;5.45;;
23743;SDS011;12052;53.478;10.182;2023-11-21T08:53:26;16.20;;;5.75;;
23743;SDS011;12052;53.478;10.182;2023-11-21T08:55:52;8.90;;;5.03;;
23743;SDS011;12052;53.478;10.182;2023-11-21T08:58:19;9.98;;;6.07;;
23743;SDS011;12052;53.478;10.182;2023-11-21T09:00:44;13.52;;;5.78;;
23743;SDS011;12052;53.478;10.182;2023-11-21T09:03:11;8.95;;;4.93;;
23743;SDS011;12052;53.478;10.182;2023-11-21T09:05:38;9.15;;;4.90;;
23743;SDS011;12052;53.478;10.182;2023-11-21T09:08:04;8.27;;;4.65;;
23743;SDS011;12052;53.478;10.182;2023-11-21T09:10:30;12.88;;;4.28;;
23743;SDS011;12052;53.478;10.182;2023-11-21T09:12:56;10.30;;;5.10;;
23743;SDS011;12052;53.478;10.182;2023-11-21T09:15:21;8.07;;;4.20;;
23743;SDS011;12052;53.478;10.182;2023-11-21T09:17:47;9.80;;;5.28;;
23743;SDS011;12052;53.478;10.182;2023-11-21T09:20:13;8.63;;;4.65;;
23743;SDS011;12052;53.478;10.182;2023-11-21T09:22:40;7.15;;;4.13;;
23743;SDS011;12052;53.478;10.182;2023-11-21T09:25:05;7.35;;;4.32;;
23743;SDS011;12052;53.478;10.182;2023-11-21T09:27:33;9.25;;;4.07;;
23743;SDS011;12052;53.478;10.182;2023-11-21T09:30:00;7.53;;;4.72;;
23743;SDS011;12052;53.478;10.182;2023-11-21T09:32:26;8.88;;;4.72;;
23743;SDS011;12052;53.478;10.182;2023-11-21T09:34:52;6.38;;;3.90;;
23743;SDS011;12052;53.478;10.182;2023-11-21T09:37:20;8.07;;;3.80;;
23743;SDS011;12052;53.478;10.182;2023-11-21T09:39:46;5.25;;;3.15;;
23743;SDS011;12052;53.478;10.182;2023-11-21T09:42:17;9.80;;;4.15;;
23743;SDS011;12052;53.478;10.182;2023-11-21T09:47:23;5.72;;;3.35;;
23743;SDS011;12052;53.478;10.182;2023-11-21T09:49:49;8.43;;;4.05;;
23743;SDS011;12052;53.478;10.182;2023-11-21T09:52:27;7.90;;;3.38;;
23743;SDS011;12052;53.478;10.182;2023-11-21T09:54:55;7.97;;;4.05;;
23743;SDS011;12052;53.478;10.182;2023-11-21T09:57:24;9.75;;;4.32;;
23743;SDS011;12052;53.478;10.182;2023-11-21T09:59:51;7.38;;;4.18;;
23743;SDS011;12052;53.478;10.182;2023-11-21T10:02:20;5.70;;;3.92;;
23743;SDS011;12052;53.478;10.182;2023-11-21T10:04:51;5.43;;;3.28;;
23743;SDS011;12052;53.478;10.182;2023-11-21T10:07:17;6.97;;;3.90;;
23743;SDS011;12052;53.478;10.182;2023-11-21T10:09:44;7.57;;;3.95;;
23743;SDS011;12052;53.478;10.182;2023-11-21T10:12:10;4.22;;;2.92;;
23743;SDS011;12052;53.478;10.182;2023-11-21T10:14:39;5.38;;;2.78;;
23743;SDS011;12052;53.478;10.182;2023-11-21T10:17:07;6.15;;;3.42;;
23743;SDS011;12052;53.478;10.182;2023-11-21T10:19:33;6.10;;;3.30;;
23743;SDS011;12052;53.478;10.182;2023-11-21T10:22:01;4.78;;;3.05;;
23743;SDS011;12052;53.478;10.182;2023-11-21T10:24:28;6.13;;;2.92;;
23743;SDS011;12052;53.478;10.182;2023-11-21T10:26:54;5.38;;;3.08;;
23743;SDS011;12052;53.478;10.182;2023-11-21T10:29:19;7.35;;;3.25;;
23743;SDS011;12052;53.478;10.182;2023-11-21T10:31:48;5.25;;;3.20;;
23743;SDS011;12052;53.478;10.182;2023-11-21T10:34:16;5.13;;;2.83;;
23743;SDS011;12052;53.478;10.182;2023-11-21T10:36:43;5.63;;;3.17;;
23743;SDS011;12052;53.478;10.182;2023-11-21T10:39:09;5.35;;;3.28;;
23743;SDS011;12052;53.478;10.182;2023-11-21T10:41:43;5.28;;;3.58;;
23743;SDS011;12052;53.478;10.182;2023-11-21T10:44:10;5.18;;;2.97;;
23743;SDS011;12052;53.478;10.182;2023-11-21T10:46:36;5.60;;;3.15;;
23743;SDS011;12052;53.478;10.182;2023-11-21T10:49:03;7.75;;;3.20;;
23743;SDS011;12052;53.478;10.182;2023-11-21T10:51:29;7.28;;;3.25;;
23743;SDS011;12052;53.478;10.182;2023-11-21T10:53:54;7.97;;;3.25;;
23743;SDS011;12052;53.478;10.182;2023-11-21T10:56:23;4.97;;;2.97;;
23743;SDS011;12052;53.478;10.182;2023-11-21T10:58:49;2.60;;;2.38;;
23743;SDS011;12052;53.478;10.182;2023-11-21T11:01:17;5.03;;;2.70;;
23743;SDS011;12052;53.478;10.182;2023-11-21T11:03:44;4.53;;;2.83;;
23743;SDS011;12052;53.478;10.182;2023-11-21T11:06:10;6.82;;;3.00;;
23743;SDS011;12052;53.478;10.182;2023-11-21T11:08:37;8.75;;;3.20;;
23743;SDS011;12052;53.478;10.182;2023-11-21T11:11:04;4.20;;;2.63;;
23743;SDS011;12052;53.478;10.182;2023-11-21T11:13:30;4.97;;;2.58;;
23743;SDS011;12052;53.478;10.182;2023-11-21T11:16:00;7.72;;;2.75;;
23743;SDS011;12052;53.478;10.182;2023-11-21T11:18:30;6.03;;;2.65;;
23743;SDS011;12052;53.478;10.182;2023-11-21T11:21:01;5.63;;;3.05;;
23743;SDS011;12052;53.478;10.182;2023-11-21T11:29:18;7.47;;;3.08;;
23743;SDS011;12052;53.478;10.182;2023-11-21T11:31:50;4.90;;;2.88;;
23743;SDS011;12052;53.478;10.182;2023-11-21T11:34:30;5.05;;;3.17;;
23743;SDS011;12052;53.478;10.182;2023-11-21T11:37:22;8.82;;;3.17;;
23743;SDS011;12052;53.478;10.182;2023-11-21T11:39:48;5.47;;;3.28;;
23743;SDS011;12052;53.478;10.182;2023-11-21T11:42:15;6.50;;;3.20;;
23743;SDS011;12052;53.478;10.182;2023-11-21T11:47:30;5.32;;;3.17;;
23743;SDS011;12052;53.478;10.182;2023-11-21T11:52:39;4.88;;;2.42;;
23743;SDS011;12052;53.478;10.182;2023-11-21T11:55:05;8.35;;;3.50;;
23743;SDS011;12052;53.478;10.182;2023-11-21T11:57:35;6.10;;;3.40;;
23743;SDS011;12052;53.478;10.182;2023-11-21T12:02:41;4.95;;;3.03;;
23743;SDS011;12052;53.478;10.182;2023-11-21T12:05:14;4.32;;;2.97;;
23743;SDS011;12052;53.478;10.182;2023-11-21T12:07:50;3.75;;;2.78;;
23743;SDS011;12052;53.478;10.182;2023-11-21T12:10:24;6.03;;;3.25;;
23743;SDS011;12052;53.478;10.182;2023-11-21T12:12:51;6.07;;;2.80;;
23743;SDS011;12052;53.478;10.182;2023-11-21T12:15:18;4.50;;;2.97;;
23743;SDS011;12052;53.478;10.182;2023-11-21T12:17:51;4.53;;;2.97;;
23743;SDS011;12052;53.478;10.182;2023-11-21T12:20:21;4.50;;;3.03;;
23743;SDS011;12052;53.478;10.182;2023-11-21T12:22:49;4.75;;;2.97;;
23743;SDS011;12052;53.478;10.182;2023-11-21T12:25:15;5.68;;;3.05;;
23743;SDS011;12052;53.478;10.182;2023-11-21T12:27:48;7.43;;;3.63;;
23743;SDS011;12052;53.478;10.182;2023-11-21T12:30:15;12.07;;;3.25;;
23743;SDS011;12052;53.478;10.182;2023-11-21T12:32:47;4.43;;;2.63;;
23743;SDS011;12052;53.478;10.182;2023-11-21T12:35:17;3.80;;;2.22;;
23743;SDS011;12052;53.478;10.182;2023-11-21T12:37:47;8.27;;;3.45;;
23743;SDS011;12052;53.478;10.182;2023-11-21T12:40:14;5.45;;;2.60;;
23743;SDS011;12052;53.478;10.182;2023-11-21T12:42:44;5.50;;;3.03;;
23743;SDS011;12052;53.478;10.182;2023-11-21T12:45:21;6.50;;;2.83;;
23743;SDS011;12052;53.478;10.182;2023-11-21T12:47:55;5.07;;;2.90;;
23743;SDS011;12052;53.478;10.182;2023-11-21T12:50:25;5.43;;;2.97;;
23743;SDS011;12052;53.478;10.182;2023-11-21T12:55:29;7.55;;;3.55;;
23743;SDS011;12052;53.478;10.182;2023-11-21T12:57:56;6.28;;;3.00;;
23743;SDS011;12052;53.478;10.182;2023-11-21T13:00:32;8.40;;;3.40;;
23743;SDS011;12052;53.478;10.182;2023-11-21T13:03:02;5.68;;;3.00;;
23743;SDS011;12052;53.478;10.182;2023-11-21T13:07:55;5.22;;;3.13;;
23743;SDS011;12052;53.478;10.182;2023-11-21T13:10:26;5.65;;;2.70;;
23743;SDS011;12052;53.478;10.182;2023-11-21T13:12:55;12.70;;;3.40;;
23743;SDS011;12052;53.478;10.182;2023-11-21T13:15:23;3.67;;;2.53;;
23743;SDS011;12052;53.478;10.182;2023-11-21T13:17:49;14.70;;;3.65;;
23743;SDS011;12052;53.478;10.182;2023-11-21T13:20:16;4.68;;;2.88;;
23743;SDS011;12052;53.478;10.182;2023-11-21T13:22:46;4.80;;;2.60;;
23743;SDS011;12052;53.478;10.182;2023-11-21T13:25:14;5.53;;;3.05;;
23743;SDS011;12052;53.478;10.182;2023-11-21T13:27:45;8.32;;;3.00;;
23743;SDS011;12052;53.478;10.182;2023-11-21T13:30:14;6.65;;;2.50;;
23743;SDS011;12052;53.478;10.182;2023-11-21T13:32:43;5.90;;;2.50;;
23743;SDS011;12052;53.478;10.182;2023-11-21T13:35:10;5.57;;;2.88;;
23743;SDS011;12052;53.478;10.182;2023-11-21T13:37:46;5.78;;;3.25;;
23743;SDS011;12052;53.478;10.182;2023-11-21T13:40:14;5.20;;;2.88;;
23743;SDS011;12052;53.478;10.182;2023-11-21T13:42:44;6.13;;;2.78;;
23743;SDS011;12052;53.478;10.182;2023-11-21T13:45:10;5.20;;;2.40;;
23743;SDS011;12052;53.478;10.182;2023-11-21T13:47:37;8.52;;;2.35;;
23743;SDS011;12052;53.478;10.182;2023-11-21T13:50:05;6.00;;;2.95;;
23743;SDS011;12052;53.478;10.182;2023-11-21T13:52:41;3.78;;;2.35;;
23743;SDS011;12052;53.478;10.182;2023-11-21T13:55:09;6.32;;;3.35;;
23743;SDS011;12052;53.478;10.182;2023-11-21T13:57:40;7.63;;;2.80;;
23743;SDS011;12052;53.478;10.182;2023-11-21T14:00:12;3.30;;;2.65;;
23743;SDS011;12052;53.478;10.182;2023-11-21T14:02:58;8.70;;;3.05;;
23743;SDS011;12052;53.478;10.182;2023-11-21T14:07:59;6.65;;;3.33;;
23743;SDS011;12052;53.478;10.182;2023-11-21T14:10:29;5.65;;;2.60;;
23743;SDS011;12052;53.478;10.182;2023-11-21T14:13:08;4.82;;;2.78;;
23743;SDS011;12052;53.478;10.182;2023-11-21T14:15:40;5.50;;;2.85;;
23743;SDS011;12052;53.478;10.182;2023-11-21T14:18:11;5.07;;;2.90;;
23743;SDS011;12052;53.478;10.182;2023-11-21T14:20:39;3.85;;;2.83;;
23743;SDS011;12052;53.478;10.182;2023-11-21T14:23:06;6.95;;;3.30;;
23743;SDS011;12052;53.478;10.182;2023-11-21T14:25:32;6.22;;;2.60;;
23743;SDS011;12052;53.478;10.182;2023-11-21T14:27:59;4.82;;;3.00;;
23743;SDS011;12052;53.478;10.182;2023-11-21T14:30:24;4.13;;;2.50;;
23743;SDS011;12052;53.478;10.182;2023-11-21T14:32:51;4.35;;;2.88;;
23743;SDS011;12052;53.478;10.182;2023-11-21T14:35:16;4.15;;;2.70;;
23743;SDS011;12052;53.478;10.182;2023-11-21T14:37:42;5.75;;;3.28;;
23743;SDS011;12052;53.478;10.182;2023-11-21T14:40:08;6.25;;;2.67;;
23743;SDS011;12052;53.478;10.182;2023-11-21T14:42:35;5.43;;;2.47;;
23743;SDS011;12052;53.478;10.182;2023-11-21T14:45:04;4.93;;;2.75;;
23743;SDS011;12052;53.478;10.182;2023-11-21T14:47:32;3.63;;;2.20;;
23743;SDS011;12052;53.478;10.182;2023-11-21T14:49:59;2.97;;;2.15;;